Huvudsida
METAR-TAF:

METAR-TAF

Flygplatser :

Arlanda

Stockholm-Arlanda, Sverige

latitud: 59-39N, longitud: 017-57E, höjd: 38 m

Aktuellt väderrapport

Denna rapport gjordes för 30 minuter sedan, klockan 15:20 UTC
Vind 13 kt från väst
Temperatur 5°C
Fuktighet 87%
Tryck 994 hPa
Sikt: 9000 m
Brutna moln på en höjd av 1600 ft
lätt regn

METAR: ESSA 191520Z 26013KT 9000 -RA BKN016 05/03 Q0994 R01L/29//95 R08/29//95 R01R/29//95 NOSIG

Tid: 16:50 (15:50 UTC)

Väderprognos

Denna rapport gjordes för 4 timmar och 20 minuter sedan, klockan 11:30 UTC
Prognos gäller från 19 kl. 12 UTC till 20 kl. 12 UTC
Vind 12 kt från väst/sydväst
Sikt 10 km eller mer
Få moln på en höjd av 1500 ft
Brutna moln på en höjd av 4000 ft
Sannolikhet 40%
från 19 kl. 12 UTC till 19 kl. 15 UTC
Brutna moln på en höjd av 1400 ft
Blir
från 20 kl. 03 UTC till 20 kl. 05 UTC
Vind 10 kt från väst/nordväst

TAF: ESSA 191130Z 1912/2012 24012KT 9999 FEW015 BKN040 PROB40 1912/1915 BKN014 BECMG 2003/2005 30010KT

Aktuella väderrapporter och prognoser från 4000 flygplatser (METAR- och TAF-rapporter).

De tillgängliga stationerna syns som gula och röda prickar på kartan.

För musen över prickarna för att se namnen på stationerna.

Klicka sedan för att få väderrapporter och prognoser.

För att ändra kartan: Klicka på de gröna knapparna med ett svart kors på för att zooma in; den gröna knappen med ett streck på för att zooma ut; eller på de gröna pilarna för angränsande kartor.


METAR-TAF: